sensor_id;sensor_type;location;lat;lon;timestamp;P1;durP1;ratioP1;P2;durP2;ratioP2
34317;SDS011;20582;52.196;20.952;2023-04-21T00:00:11;12.82;;;8.10;;
34317;SDS011;20582;52.196;20.952;2023-04-21T00:02:38;12.30;;;7.60;;
34317;SDS011;20582;52.196;20.952;2023-04-21T00:05:07;14.93;;;8.50;;
34317;SDS011;20582;52.196;20.952;2023-04-21T00:07:35;14.00;;;7.80;;
34317;SDS011;20582;52.196;20.952;2023-04-21T00:10:02;14.70;;;7.80;;
34317;SDS011;20582;52.196;20.952;2023-04-21T00:12:28;14.98;;;7.68;;
34317;SDS011;20582;52.196;20.952;2023-04-21T00:14:54;13.98;;;7.82;;
34317;SDS011;20582;52.196;20.952;2023-04-21T00:17:20;13.68;;;7.63;;
34317;SDS011;20582;52.196;20.952;2023-04-21T00:19:46;12.55;;;8.00;;
34317;SDS011;20582;52.196;20.952;2023-04-21T00:22:12;13.82;;;7.72;;
34317;SDS011;20582;52.196;20.952;2023-04-21T00:24:39;14.27;;;7.90;;
34317;SDS011;20582;52.196;20.952;2023-04-21T00:27:05;16.80;;;7.75;;
34317;SDS011;20582;52.196;20.952;2023-04-21T00:29:31;14.82;;;8.05;;
34317;SDS011;20582;52.196;20.952;2023-04-21T00:31:57;13.38;;;8.50;;
34317;SDS011;20582;52.196;20.952;2023-04-21T00:34:23;13.95;;;8.02;;
34317;SDS011;20582;52.196;20.952;2023-04-21T00:36:49;14.65;;;8.95;;
34317;SDS011;20582;52.196;20.952;2023-04-21T00:39:15;15.02;;;7.60;;
34317;SDS011;20582;52.196;20.952;2023-04-21T00:41:41;16.45;;;8.25;;
34317;SDS011;20582;52.196;20.952;2023-04-21T00:44:08;12.00;;;8.02;;
34317;SDS011;20582;52.196;20.952;2023-04-21T00:46:34;12.93;;;7.97;;
34317;SDS011;20582;52.196;20.952;2023-04-21T00:49:02;13.02;;;8.00;;
34317;SDS011;20582;52.196;20.952;2023-04-21T00:51:29;14.10;;;8.35;;
34317;SDS011;20582;52.196;20.952;2023-04-21T00:53:57;13.30;;;8.10;;
34317;SDS011;20582;52.196;20.952;2023-04-21T00:56:23;16.25;;;8.00;;
34317;SDS011;20582;52.196;20.952;2023-04-21T00:58:50;18.33;;;8.73;;
34317;SDS011;20582;52.196;20.952;2023-04-21T01:01:17;16.83;;;7.80;;
34317;SDS011;20582;52.196;20.952;2023-04-21T01:03:43;14.25;;;7.72;;
34317;SDS011;20582;52.196;20.952;2023-04-21T01:06:11;13.60;;;8.15;;
34317;SDS011;20582;52.196;20.952;2023-04-21T01:08:37;13.93;;;8.13;;
34317;SDS011;20582;52.196;20.952;2023-04-21T01:11:10;13.20;;;7.80;;
34317;SDS011;20582;52.196;20.952;2023-04-21T01:13:36;12.30;;;8.25;;
34317;SDS011;20582;52.196;20.952;2023-04-21T01:16:02;13.95;;;7.95;;
34317;SDS011;20582;52.196;20.952;2023-04-21T01:18:28;18.52;;;8.60;;
34317;SDS011;20582;52.196;20.952;2023-04-21T01:20:55;13.63;;;7.70;;
34317;SDS011;20582;52.196;20.952;2023-04-21T01:23:22;15.38;;;8.48;;
34317;SDS011;20582;52.196;20.952;2023-04-21T01:25:49;12.82;;;7.97;;
34317;SDS011;20582;52.196;20.952;2023-04-21T01:28:20;13.48;;;7.85;;
34317;SDS011;20582;52.196;20.952;2023-04-21T01:30:46;14.98;;;8.23;;
34317;SDS011;20582;52.196;20.952;2023-04-21T01:33:12;16.50;;;8.23;;
34317;SDS011;20582;52.196;20.952;2023-04-21T01:35:37;13.90;;;8.10;;
34317;SDS011;20582;52.196;20.952;2023-04-21T01:38:04;11.73;;;7.45;;
34317;SDS011;20582;52.196;20.952;2023-04-21T01:40:30;12.50;;;8.07;;
34317;SDS011;20582;52.196;20.952;2023-04-21T01:42:56;15.38;;;7.72;;
34317;SDS011;20582;52.196;20.952;2023-04-21T01:45:23;14.20;;;8.13;;
34317;SDS011;20582;52.196;20.952;2023-04-21T01:47:49;13.13;;;7.85;;
34317;SDS011;20582;52.196;20.952;2023-04-21T01:50:15;14.40;;;8.05;;
34317;SDS011;20582;52.196;20.952;2023-04-21T01:52:42;11.77;;;7.88;;
34317;SDS011;20582;52.196;20.952;2023-04-21T01:55:08;13.73;;;8.48;;
34317;SDS011;20582;52.196;20.952;2023-04-21T01:57:34;13.55;;;7.80;;
34317;SDS011;20582;52.196;20.952;2023-04-21T02:00:00;12.80;;;7.93;;
34317;SDS011;20582;52.196;20.952;2023-04-21T02:02:27;13.00;;;8.38;;
34317;SDS011;20582;52.196;20.952;2023-04-21T02:04:52;13.77;;;8.20;;
34317;SDS011;20582;52.196;20.952;2023-04-21T02:07:19;14.27;;;7.95;;
34317;SDS011;20582;52.196;20.952;2023-04-21T02:09:45;17.35;;;7.85;;
34317;SDS011;20582;52.196;20.952;2023-04-21T02:12:11;14.20;;;7.97;;
34317;SDS011;20582;52.196;20.952;2023-04-21T02:14:37;13.85;;;8.02;;
34317;SDS011;20582;52.196;20.952;2023-04-21T02:17:03;12.68;;;7.55;;
34317;SDS011;20582;52.196;20.952;2023-04-21T02:19:29;14.68;;;8.07;;
34317;SDS011;20582;52.196;20.952;2023-04-21T02:21:55;14.52;;;8.07;;
34317;SDS011;20582;52.196;20.952;2023-04-21T02:24:21;16.13;;;8.30;;
34317;SDS011;20582;52.196;20.952;2023-04-21T02:26:47;16.40;;;8.50;;
34317;SDS011;20582;52.196;20.952;2023-04-21T02:29:13;14.60;;;8.43;;
34317;SDS011;20582;52.196;20.952;2023-04-21T02:31:39;12.95;;;8.60;;
34317;SDS011;20582;52.196;20.952;2023-04-21T02:34:05;17.13;;;7.95;;
34317;SDS011;20582;52.196;20.952;2023-04-21T02:36:31;16.23;;;8.40;;
34317;SDS011;20582;52.196;20.952;2023-04-21T02:38:58;13.40;;;8.23;;
34317;SDS011;20582;52.196;20.952;2023-04-21T02:41:24;15.85;;;8.13;;
34317;SDS011;20582;52.196;20.952;2023-04-21T02:43:50;15.23;;;8.38;;
34317;SDS011;20582;52.196;20.952;2023-04-21T02:46:16;16.58;;;7.70;;
34317;SDS011;20582;52.196;20.952;2023-04-21T02:48:42;13.15;;;8.23;;
34317;SDS011;20582;52.196;20.952;2023-04-21T02:51:11;15.90;;;7.65;;
34317;SDS011;20582;52.196;20.952;2023-04-21T02:53:37;13.68;;;8.13;;
34317;SDS011;20582;52.196;20.952;2023-04-21T02:56:04;15.15;;;8.20;;
34317;SDS011;20582;52.196;20.952;2023-04-21T02:58:30;13.35;;;7.85;;
34317;SDS011;20582;52.196;20.952;2023-04-21T03:00:56;13.18;;;8.02;;
34317;SDS011;20582;52.196;20.952;2023-04-21T03:03:22;17.00;;;8.75;;
34317;SDS011;20582;52.196;20.952;2023-04-21T03:05:48;15.85;;;7.90;;
34317;SDS011;20582;52.196;20.952;2023-04-21T03:08:14;16.90;;;8.05;;
34317;SDS011;20582;52.196;20.952;2023-04-21T03:10:40;14.93;;;8.18;;
34317;SDS011;20582;52.196;20.952;2023-04-21T03:13:06;15.30;;;7.70;;
34317;SDS011;20582;52.196;20.952;2023-04-21T03:15:32;18.65;;;10.27;;
34317;SDS011;20582;52.196;20.952;2023-04-21T03:17:58;14.25;;;8.27;;
34317;SDS011;20582;52.196;20.952;2023-04-21T03:20:25;13.73;;;8.32;;
34317;SDS011;20582;52.196;20.952;2023-04-21T03:22:52;13.68;;;7.70;;
34317;SDS011;20582;52.196;20.952;2023-04-21T03:25:18;12.98;;;7.90;;
34317;SDS011;20582;52.196;20.952;2023-04-21T03:27:44;18.70;;;10.38;;
34317;SDS011;20582;52.196;20.952;2023-04-21T03:30:10;14.82;;;8.30;;
34317;SDS011;20582;52.196;20.952;2023-04-21T03:32:36;15.02;;;8.52;;
34317;SDS011;20582;52.196;20.952;2023-04-21T03:35:02;17.13;;;9.30;;
34317;SDS011;20582;52.196;20.952;2023-04-21T03:37:28;15.32;;;8.07;;
34317;SDS011;20582;52.196;20.952;2023-04-21T03:39:54;14.88;;;7.45;;
34317;SDS011;20582;52.196;20.952;2023-04-21T03:42:20;13.55;;;7.70;;
34317;SDS011;20582;52.196;20.952;2023-04-21T03:44:46;15.63;;;8.02;;
34317;SDS011;20582;52.196;20.952;2023-04-21T03:47:12;15.93;;;8.40;;
34317;SDS011;20582;52.196;20.952;2023-04-21T03:49:38;15.05;;;7.80;;
34317;SDS011;20582;52.196;20.952;2023-04-21T03:52:04;13.10;;;7.28;;
34317;SDS011;20582;52.196;20.952;2023-04-21T03:54:30;15.27;;;7.45;;
34317;SDS011;20582;52.196;20.952;2023-04-21T03:56:56;14.90;;;7.68;;
34317;SDS011;20582;52.196;20.952;2023-04-21T03:59:22;13.25;;;7.50;;
34317;SDS011;20582;52.196;20.952;2023-04-21T04:01:48;14.35;;;7.50;;
34317;SDS011;20582;52.196;20.952;2023-04-21T04:04:14;18.98;;;7.15;;
34317;SDS011;20582;52.196;20.952;2023-04-21T04:06:40;15.40;;;8.10;;
34317;SDS011;20582;52.196;20.952;2023-04-21T04:09:06;16.52;;;8.20;;
34317;SDS011;20582;52.196;20.952;2023-04-21T04:11:33;15.18;;;7.28;;
34317;SDS011;20582;52.196;20.952;2023-04-21T04:13:59;18.42;;;7.82;;
34317;SDS011;20582;52.196;20.952;2023-04-21T04:16:25;17.73;;;7.53;;
34317;SDS011;20582;52.196;20.952;2023-04-21T04:18:52;13.98;;;7.40;;
34317;SDS011;20582;52.196;20.952;2023-04-21T04:21:18;14.52;;;7.10;;
34317;SDS011;20582;52.196;20.952;2023-04-21T04:23:44;15.40;;;7.43;;
34317;SDS011;20582;52.196;20.952;2023-04-21T04:26:10;13.50;;;7.22;;
34317;SDS011;20582;52.196;20.952;2023-04-21T04:28:36;12.75;;;6.65;;
34317;SDS011;20582;52.196;20.952;2023-04-21T04:31:02;12.07;;;7.05;;
34317;SDS011;20582;52.196;20.952;2023-04-21T04:33:28;15.13;;;6.80;;
34317;SDS011;20582;52.196;20.952;2023-04-21T04:35:54;16.35;;;7.20;;
34317;SDS011;20582;52.196;20.952;2023-04-21T04:38:22;13.98;;;6.35;;
34317;SDS011;20582;52.196;20.952;2023-04-21T04:40:54;12.65;;;6.95;;
34317;SDS011;20582;52.196;20.952;2023-04-21T04:43:21;14.43;;;6.38;;
34317;SDS011;20582;52.196;20.952;2023-04-21T04:45:47;12.55;;;7.43;;
34317;SDS011;20582;52.196;20.952;2023-04-21T04:48:13;13.82;;;7.20;;
34317;SDS011;20582;52.196;20.952;2023-04-21T04:50:39;15.20;;;6.18;;
34317;SDS011;20582;52.196;20.952;2023-04-21T04:53:05;13.40;;;7.13;;
34317;SDS011;20582;52.196;20.952;2023-04-21T04:55:31;13.10;;;7.05;;
34317;SDS011;20582;52.196;20.952;2023-04-21T04:57:57;13.07;;;6.63;;
34317;SDS011;20582;52.196;20.952;2023-04-21T05:00:23;11.80;;;6.38;;
34317;SDS011;20582;52.196;20.952;2023-04-21T05:02:49;11.80;;;6.30;;
34317;SDS011;20582;52.196;20.952;2023-04-21T05:05:15;16.77;;;7.25;;
34317;SDS011;20582;52.196;20.952;2023-04-21T05:07:41;13.00;;;6.55;;
34317;SDS011;20582;52.196;20.952;2023-04-21T05:10:07;15.77;;;6.78;;
34317;SDS011;20582;52.196;20.952;2023-04-21T05:12:33;12.55;;;6.32;;
34317;SDS011;20582;52.196;20.952;2023-04-21T05:14:59;18.55;;;7.47;;
34317;SDS011;20582;52.196;20.952;2023-04-21T05:17:25;12.13;;;6.65;;
34317;SDS011;20582;52.196;20.952;2023-04-21T05:19:52;14.75;;;7.28;;
34317;SDS011;20582;52.196;20.952;2023-04-21T05:22:18;13.98;;;7.60;;
34317;SDS011;20582;52.196;20.952;2023-04-21T05:24:44;12.18;;;7.25;;
34317;SDS011;20582;52.196;20.952;2023-04-21T05:27:10;15.23;;;6.90;;
34317;SDS011;20582;52.196;20.952;2023-04-21T05:29:36;16.23;;;7.55;;
34317;SDS011;20582;52.196;20.952;2023-04-21T05:32:02;18.25;;;7.45;;
34317;SDS011;20582;52.196;20.952;2023-04-21T05:34:29;14.05;;;6.90;;
34317;SDS011;20582;52.196;20.952;2023-04-21T05:36:55;10.55;;;6.65;;
34317;SDS011;20582;52.196;20.952;2023-04-21T05:39:21;14.52;;;7.25;;
34317;SDS011;20582;52.196;20.952;2023-04-21T05:41:47;15.13;;;7.38;;
34317;SDS011;20582;52.196;20.952;2023-04-21T05:44:15;17.38;;;6.93;;
34317;SDS011;20582;52.196;20.952;2023-04-21T05:46:41;22.15;;;7.53;;
34317;SDS011;20582;52.196;20.952;2023-04-21T05:49:07;15.20;;;6.82;;
34317;SDS011;20582;52.196;20.952;2023-04-21T05:51:33;17.17;;;7.13;;
34317;SDS011;20582;52.196;20.952;2023-04-21T05:53:59;12.63;;;6.45;;
34317;SDS011;20582;52.196;20.952;2023-04-21T05:56:25;13.93;;;6.43;;
34317;SDS011;20582;52.196;20.952;2023-04-21T05:58:51;16.55;;;7.88;;
34317;SDS011;20582;52.196;20.952;2023-04-21T06:01:17;14.88;;;7.32;;
34317;SDS011;20582;52.196;20.952;2023-04-21T06:03:43;11.80;;;6.53;;
34317;SDS011;20582;52.196;20.952;2023-04-21T06:06:09;10.88;;;6.82;;
34317;SDS011;20582;52.196;20.952;2023-04-21T06:08:35;15.45;;;6.50;;
34317;SDS011;20582;52.196;20.952;2023-04-21T06:11:01;22.02;;;6.82;;
34317;SDS011;20582;52.196;20.952;2023-04-21T06:13:27;12.82;;;6.80;;
34317;SDS011;20582;52.196;20.952;2023-04-21T06:15:53;17.02;;;6.93;;
34317;SDS011;20582;52.196;20.952;2023-04-21T06:18:20;14.52;;;6.60;;
34317;SDS011;20582;52.196;20.952;2023-04-21T06:20:52;21.63;;;6.75;;
34317;SDS011;20582;52.196;20.952;2023-04-21T06:23:18;15.07;;;6.60;;
34317;SDS011;20582;52.196;20.952;2023-04-21T06:25:45;11.95;;;6.30;;
34317;SDS011;20582;52.196;20.952;2023-04-21T06:28:11;17.83;;;6.30;;
34317;SDS011;20582;52.196;20.952;2023-04-21T06:30:37;15.48;;;6.20;;
34317;SDS011;20582;52.196;20.952;2023-04-21T06:33:03;14.60;;;6.38;;
34317;SDS011;20582;52.196;20.952;2023-04-21T06:35:30;12.50;;;5.90;;
34317;SDS011;20582;52.196;20.952;2023-04-21T06:37:56;12.32;;;5.30;;
34317;SDS011;20582;52.196;20.952;2023-04-21T06:40:22;11.45;;;6.22;;
34317;SDS011;20582;52.196;20.952;2023-04-21T06:42:48;10.38;;;5.53;;
34317;SDS011;20582;52.196;20.952;2023-04-21T06:45:14;13.98;;;5.72;;
34317;SDS011;20582;52.196;20.952;2023-04-21T06:47:40;13.05;;;5.72;;
34317;SDS011;20582;52.196;20.952;2023-04-21T06:50:06;12.57;;;5.90;;
34317;SDS011;20582;52.196;20.952;2023-04-21T06:52:32;12.02;;;5.30;;
34317;SDS011;20582;52.196;20.952;2023-04-21T06:54:59;12.32;;;5.15;;
34317;SDS011;20582;52.196;20.952;2023-04-21T06:57:25;9.82;;;5.10;;
34317;SDS011;20582;52.196;20.952;2023-04-21T06:59:51;13.88;;;5.53;;
34317;SDS011;20582;52.196;20.952;2023-04-21T07:02:17;11.32;;;5.30;;
34317;SDS011;20582;52.196;20.952;2023-04-21T07:04:43;11.32;;;5.20;;
34317;SDS011;20582;52.196;20.952;2023-04-21T07:07:09;9.77;;;5.30;;
34317;SDS011;20582;52.196;20.952;2023-04-21T07:09:35;11.52;;;5.45;;
34317;SDS011;20582;52.196;20.952;2023-04-21T07:12:01;11.57;;;5.40;;
34317;SDS011;20582;52.196;20.952;2023-04-21T07:14:27;14.43;;;5.65;;
34317;SDS011;20582;52.196;20.952;2023-04-21T07:16:53;11.45;;;4.80;;
34317;SDS011;20582;52.196;20.952;2023-04-21T07:19:21;13.35;;;5.70;;
34317;SDS011;20582;52.196;20.952;2023-04-21T07:21:47;12.90;;;5.22;;
34317;SDS011;20582;52.196;20.952;2023-04-21T07:24:12;11.07;;;5.15;;
34317;SDS011;20582;52.196;20.952;2023-04-21T07:26:38;13.57;;;4.90;;
34317;SDS011;20582;52.196;20.952;2023-04-21T07:29:04;9.50;;;4.80;;
34317;SDS011;20582;52.196;20.952;2023-04-21T07:31:30;11.98;;;5.55;;
34317;SDS011;20582;52.196;20.952;2023-04-21T07:33:56;10.65;;;5.63;;
34317;SDS011;20582;52.196;20.952;2023-04-21T07:36:22;14.07;;;5.25;;
34317;SDS011;20582;52.196;20.952;2023-04-21T07:38:50;13.13;;;5.05;;
34317;SDS011;20582;52.196;20.952;2023-04-21T07:41:16;10.90;;;4.85;;
34317;SDS011;20582;52.196;20.952;2023-04-21T07:43:42;14.40;;;5.45;;
34317;SDS011;20582;52.196;20.952;2023-04-21T07:46:07;10.85;;;5.10;;
34317;SDS011;20582;52.196;20.952;2023-04-21T07:48:33;12.02;;;5.20;;
34317;SDS011;20582;52.196;20.952;2023-04-21T07:50:59;9.77;;;5.00;;
34317;SDS011;20582;52.196;20.952;2023-04-21T07:53:27;10.60;;;4.88;;
34317;SDS011;20582;52.196;20.952;2023-04-21T07:55:54;12.45;;;4.95;;
34317;SDS011;20582;52.196;20.952;2023-04-21T07:58:20;10.32;;;4.70;;
34317;SDS011;20582;52.196;20.952;2023-04-21T08:00:46;10.75;;;4.95;;
34317;SDS011;20582;52.196;20.952;2023-04-21T08:03:12;8.98;;;4.45;;
34317;SDS011;20582;52.196;20.952;2023-04-21T08:05:38;9.05;;;4.18;;
34317;SDS011;20582;52.196;20.952;2023-04-21T08:08:04;12.02;;;4.75;;
34317;SDS011;20582;52.196;20.952;2023-04-21T08:10:31;8.57;;;4.60;;
34317;SDS011;20582;52.196;20.952;2023-04-21T08:12:57;10.32;;;4.93;;
34317;SDS011;20582;52.196;20.952;2023-04-21T08:15:23;13.13;;;4.57;;
34317;SDS011;20582;52.196;20.952;2023-04-21T08:17:49;7.88;;;4.05;;
34317;SDS011;20582;52.196;20.952;2023-04-21T08:20:15;15.00;;;4.50;;
34317;SDS011;20582;52.196;20.952;2023-04-21T08:22:41;11.35;;;4.43;;
34317;SDS011;20582;52.196;20.952;2023-04-21T08:25:07;8.50;;;4.93;;
34317;SDS011;20582;52.196;20.952;2023-04-21T08:27:36;10.18;;;4.90;;
34317;SDS011;20582;52.196;20.952;2023-04-21T08:30:03;9.27;;;4.50;;
34317;SDS011;20582;52.196;20.952;2023-04-21T08:32:29;12.15;;;4.57;;
34317;SDS011;20582;52.196;20.952;2023-04-21T08:34:55;10.60;;;4.32;;
34317;SDS011;20582;52.196;20.952;2023-04-21T08:37:21;18.67;;;4.60;;
34317;SDS011;20582;52.196;20.952;2023-04-21T08:39:48;9.32;;;4.07;;
34317;SDS011;20582;52.196;20.952;2023-04-21T08:42:15;10.90;;;4.47;;
34317;SDS011;20582;52.196;20.952;2023-04-21T08:44:41;11.70;;;4.22;;
34317;SDS011;20582;52.196;20.952;2023-04-21T08:47:08;11.98;;;4.75;;
34317;SDS011;20582;52.196;20.952;2023-04-21T08:49:35;8.80;;;4.30;;
34317;SDS011;20582;52.196;20.952;2023-04-21T08:52:02;8.50;;;3.92;;
34317;SDS011;20582;52.196;20.952;2023-04-21T08:54:28;8.05;;;3.75;;
34317;SDS011;20582;52.196;20.952;2023-04-21T08:56:55;6.18;;;3.65;;
34317;SDS011;20582;52.196;20.952;2023-04-21T08:59:21;9.18;;;3.60;;
34317;SDS011;20582;52.196;20.952;2023-04-21T09:04:32;7.70;;;4.15;;
34317;SDS011;20582;52.196;20.952;2023-04-21T09:06:58;7.30;;;4.00;;
34317;SDS011;20582;52.196;20.952;2023-04-21T09:09:24;7.93;;;3.80;;
34317;SDS011;20582;52.196;20.952;2023-04-21T09:11:56;8.00;;;3.80;;
34317;SDS011;20582;52.196;20.952;2023-04-21T09:14:32;8.20;;;3.80;;
34317;SDS011;20582;52.196;20.952;2023-04-21T09:16:59;7.85;;;3.80;;
34317;SDS011;20582;52.196;20.952;2023-04-21T09:19:26;8.57;;;3.92;;
34317;SDS011;20582;52.196;20.952;2023-04-21T09:21:52;6.38;;;3.50;;
34317;SDS011;20582;52.196;20.952;2023-04-21T09:24:18;9.65;;;3.22;;
34317;SDS011;20582;52.196;20.952;2023-04-21T09:26:48;7.15;;;3.33;;
34317;SDS011;20582;52.196;20.952;2023-04-21T09:29:14;6.90;;;3.85;;
34317;SDS011;20582;52.196;20.952;2023-04-21T09:31:40;9.95;;;3.75;;
34317;SDS011;20582;52.196;20.952;2023-04-21T09:34:18;7.25;;;3.83;;
34317;SDS011;20582;52.196;20.952;2023-04-21T09:36:45;8.05;;;3.72;;
34317;SDS011;20582;52.196;20.952;2023-04-21T09:39:12;10.57;;;4.10;;
34317;SDS011;20582;52.196;20.952;2023-04-21T09:41:38;7.57;;;3.60;;
34317;SDS011;20582;52.196;20.952;2023-04-21T09:44:04;5.75;;;3.60;;
34317;SDS011;20582;52.196;20.952;2023-04-21T09:46:34;7.40;;;3.72;;
34317;SDS011;20582;52.196;20.952;2023-04-21T09:49:00;7.45;;;3.70;;
34317;SDS011;20582;52.196;20.952;2023-04-21T09:51:27;6.93;;;3.60;;
34317;SDS011;20582;52.196;20.952;2023-04-21T09:53:57;6.15;;;3.63;;
34317;SDS011;20582;52.196;20.952;2023-04-21T09:56:23;6.43;;;3.50;;
34317;SDS011;20582;52.196;20.952;2023-04-21T09:58:51;7.03;;;3.88;;
34317;SDS011;20582;52.196;20.952;2023-04-21T10:01:17;7.75;;;4.25;;
34317;SDS011;20582;52.196;20.952;2023-04-21T10:03:44;5.85;;;3.63;;
34317;SDS011;20582;52.196;20.952;2023-04-21T10:06:12;8.00;;;3.72;;
34317;SDS011;20582;52.196;20.952;2023-04-21T10:08:38;9.07;;;4.38;;
34317;SDS011;20582;52.196;20.952;2023-04-21T10:11:05;5.97;;;3.80;;
34317;SDS011;20582;52.196;20.952;2023-04-21T10:13:31;7.53;;;3.90;;
34317;SDS011;20582;52.196;20.952;2023-04-21T10:16:04;7.88;;;3.60;;
34317;SDS011;20582;52.196;20.952;2023-04-21T10:18:34;8.52;;;3.60;;
34317;SDS011;20582;52.196;20.952;2023-04-21T10:21:02;7.00;;;3.53;;
34317;SDS011;20582;52.196;20.952;2023-04-21T10:23:33;11.27;;;3.33;;
34317;SDS011;20582;52.196;20.952;2023-04-21T10:26:02;7.05;;;3.50;;
34317;SDS011;20582;52.196;20.952;2023-04-21T10:28:38;6.82;;;3.75;;
34317;SDS011;20582;52.196;20.952;2023-04-21T10:31:17;9.30;;;3.88;;
34317;SDS011;20582;52.196;20.952;2023-04-21T10:36:29;7.20;;;3.45;;
34317;SDS011;20582;52.196;20.952;2023-04-21T10:38:55;7.93;;;3.50;;
34317;SDS011;20582;52.196;20.952;2023-04-21T10:41:27;8.15;;;3.78;;
34317;SDS011;20582;52.196;20.952;2023-04-21T10:43:53;5.73;;;3.80;;
34317;SDS011;20582;52.196;20.952;2023-04-21T10:46:34;10.07;;;4.18;;
34317;SDS011;20582;52.196;20.952;2023-04-21T10:49:04;7.22;;;3.88;;
34317;SDS011;20582;52.196;20.952;2023-04-21T10:51:30;7.75;;;3.70;;
34317;SDS011;20582;52.196;20.952;2023-04-21T10:53:59;7.95;;;3.72;;
34317;SDS011;20582;52.196;20.952;2023-04-21T10:56:29;6.43;;;3.95;;
34317;SDS011;20582;52.196;20.952;2023-04-21T10:58:55;6.15;;;3.60;;
34317;SDS011;20582;52.196;20.952;2023-04-21T11:01:23;6.57;;;3.47;;
34317;SDS011;20582;52.196;20.952;2023-04-21T11:03:49;5.78;;;3.25;;
34317;SDS011;20582;52.196;20.952;2023-04-21T11:06:16;6.22;;;3.15;;
34317;SDS011;20582;52.196;20.952;2023-04-21T11:08:57;8.35;;;3.63;;
34317;SDS011;20582;52.196;20.952;2023-04-21T11:11:23;6.43;;;3.47;;
34317;SDS011;20582;52.196;20.952;2023-04-21T11:13:51;5.90;;;3.40;;
34317;SDS011;20582;52.196;20.952;2023-04-21T11:16:18;9.38;;;4.10;;
34317;SDS011;20582;52.196;20.952;2023-04-21T11:18:44;6.93;;;3.38;;
34317;SDS011;20582;52.196;20.952;2023-04-21T11:23:40;7.15;;;3.60;;
34317;SDS011;20582;52.196;20.952;2023-04-21T11:26:07;6.65;;;3.53;;
34317;SDS011;20582;52.196;20.952;2023-04-21T11:28:33;7.32;;;3.50;;
34317;SDS011;20582;52.196;20.952;2023-04-21T11:30:59;4.50;;;3.08;;
34317;SDS011;20582;52.196;20.952;2023-04-21T11:33:27;6.50;;;3.53;;
34317;SDS011;20582;52.196;20.952;2023-04-21T11:35:53;5.90;;;3.53;;
34317;SDS011;20582;52.196;20.952;2023-04-21T11:38:23;8.45;;;3.97;;
34317;SDS011;20582;52.196;20.952;2023-04-21T11:40:49;7.55;;;3.65;;
34317;SDS011;20582;52.196;20.952;2023-04-21T11:43:15;7.95;;;4.05;;
34317;SDS011;20582;52.196;20.952;2023-04-21T11:45:41;7.15;;;3.50;;
34317;SDS011;20582;52.196;20.952;2023-04-21T11:48:14;6.18;;;4.10;;
34317;SDS011;20582;52.196;20.952;2023-04-21T11:50:45;8.57;;;3.92;;
34317;SDS011;20582;52.196;20.952;2023-04-21T11:53:13;8.70;;;4.30;;
34317;SDS011;20582;52.196;20.952;2023-04-21T11:55:42;9.70;;;4.20;;
34317;SDS011;20582;52.196;20.952;2023-04-21T11:58:09;5.07;;;3.40;;
34317;SDS011;20582;52.196;20.952;2023-04-21T12:00:36;8.70;;;4.10;;
34317;SDS011;20582;52.196;20.952;2023-04-21T12:03:02;7.60;;;4.00;;
34317;SDS011;20582;52.196;20.952;2023-04-21T12:05:34;6.18;;;3.95;;
34317;SDS011;20582;52.196;20.952;2023-04-21T12:08:00;7.18;;;3.70;;
34317;SDS011;20582;52.196;20.952;2023-04-21T12:10:28;9.15;;;3.78;;
34317;SDS011;20582;52.196;20.952;2023-04-21T12:12:55;7.75;;;3.83;;
34317;SDS011;20582;52.196;20.952;2023-04-21T12:15:21;6.43;;;3.90;;
34317;SDS011;20582;52.196;20.952;2023-04-21T12:17:51;7.22;;;3.88;;
34317;SDS011;20582;52.196;20.952;2023-04-21T12:20:18;6.90;;;3.42;;
34317;SDS011;20582;52.196;20.952;2023-04-21T12:22:44;7.35;;;3.45;;
34317;SDS011;20582;52.196;20.952;2023-04-21T12:25:11;8.20;;;3.60;;
34317;SDS011;20582;52.196;20.952;2023-04-21T12:27:46;7.97;;;3.53;;
34317;SDS011;20582;52.196;20.952;2023-04-21T12:30:12;6.63;;;3.90;;
34317;SDS011;20582;52.196;20.952;2023-04-21T12:32:38;5.90;;;3.60;;
34317;SDS011;20582;52.196;20.952;2023-04-21T12:35:04;8.35;;;3.65;;
34317;SDS011;20582;52.196;20.952;2023-04-21T12:37:30;6.07;;;3.65;;
34317;SDS011;20582;52.196;20.952;2023-04-21T12:39:56;6.10;;;3.70;;
34317;SDS011;20582;52.196;20.952;2023-04-21T12:42:22;9.45;;;3.92;;
34317;SDS011;20582;52.196;20.952;2023-04-21T12:44:48;6.60;;;3.47;;
34317;SDS011;20582;52.196;20.952;2023-04-21T12:47:14;9.25;;;3.80;;
34317;SDS011;20582;52.196;20.952;2023-04-21T12:49:40;8.10;;;3.45;;
34317;SDS011;20582;52.196;20.952;2023-04-21T12:52:06;5.32;;;3.33;;
34317;SDS011;20582;52.196;20.952;2023-04-21T12:54:32;10.05;;;4.05;;
34317;SDS011;20582;52.196;20.952;2023-04-21T12:56:58;7.10;;;3.35;;
34317;SDS011;20582;52.196;20.952;2023-04-21T12:59:24;6.68;;;3.60;;
34317;SDS011;20582;52.196;20.952;2023-04-21T13:01:50;7.97;;;3.88;;
34317;SDS011;20582;52.196;20.952;2023-04-21T13:04:16;5.47;;;3.20;;
34317;SDS011;20582;52.196;20.952;2023-04-21T13:06:42;7.00;;;3.40;;
34317;SDS011;20582;52.196;20.952;2023-04-21T13:09:08;8.02;;;3.38;;
34317;SDS011;20582;52.196;20.952;2023-04-21T13:11:35;7.47;;;3.80;;
34317;SDS011;20582;52.196;20.952;2023-04-21T13:14:01;7.75;;;3.63;;
34317;SDS011;20582;52.196;20.952;2023-04-21T13:16:28;6.82;;;3.55;;
34317;SDS011;20582;52.196;20.952;2023-04-21T13:18:54;6.57;;;3.70;;
34317;SDS011;20582;52.196;20.952;2023-04-21T13:21:20;9.20;;;3.80;;
34317;SDS011;20582;52.196;20.952;2023-04-21T13:23:46;5.55;;;3.42;;
34317;SDS011;20582;52.196;20.952;2023-04-21T13:26:12;8.70;;;3.65;;
34317;SDS011;20582;52.196;20.952;2023-04-21T13:28:38;10.48;;;4.18;;
34317;SDS011;20582;52.196;20.952;2023-04-21T13:31:05;7.95;;;3.70;;
34317;SDS011;20582;52.196;20.952;2023-04-21T13:33:31;7.10;;;3.10;;
34317;SDS011;20582;52.196;20.952;2023-04-21T13:35:59;7.95;;;3.70;;
34317;SDS011;20582;52.196;20.952;2023-04-21T13:38:25;6.70;;;3.78;;
34317;SDS011;20582;52.196;20.952;2023-04-21T13:40:51;10.45;;;4.13;;
34317;SDS011;20582;52.196;20.952;2023-04-21T13:43:17;7.85;;;3.60;;
34317;SDS011;20582;52.196;20.952;2023-04-21T13:45:43;5.72;;;3.28;;
34317;SDS011;20582;52.196;20.952;2023-04-21T13:48:10;5.55;;;3.28;;
34317;SDS011;20582;52.196;20.952;2023-04-21T13:50:36;11.73;;;3.40;;
34317;SDS011;20582;52.196;20.952;2023-04-21T13:53:02;7.38;;;3.70;;
34317;SDS011;20582;52.196;20.952;2023-04-21T13:55:27;8.75;;;3.33;;
34317;SDS011;20582;52.196;20.952;2023-04-21T13:57:53;9.48;;;3.60;;
34317;SDS011;20582;52.196;20.952;2023-04-21T14:00:19;7.75;;;3.45;;
34317;SDS011;20582;52.196;20.952;2023-04-21T14:02:46;8.07;;;3.42;;
34317;SDS011;20582;52.196;20.952;2023-04-21T14:05:12;6.55;;;3.33;;
34317;SDS011;20582;52.196;20.952;2023-04-21T14:07:39;12.38;;;3.70;;
34317;SDS011;20582;52.196;20.952;2023-04-21T14:10:05;8.68;;;3.47;;
34317;SDS011;20582;52.196;20.952;2023-04-21T14:12:31;5.70;;;3.22;;
34317;SDS011;20582;52.196;20.952;2023-04-21T14:14:57;10.02;;;3.63;;
34317;SDS011;20582;52.196;20.952;2023-04-21T14:17:23;5.32;;;3.25;;
34317;SDS011;20582;52.196;20.952;2023-04-21T14:19:49;6.53;;;3.30;;
34317;SDS011;20582;52.196;20.952;2023-04-21T14:22:15;5.95;;;3.50;;
34317;SDS011;20582;52.196;20.952;2023-04-21T14:24:41;10.45;;;3.60;;
34317;SDS011;20582;52.196;20.952;2023-04-21T14:27:07;6.18;;;3.67;;
34317;SDS011;20582;52.196;20.952;2023-04-21T14:29:33;7.38;;;3.20;;